createdAt,value
2019-03-02T00:01:06.309Z,5.60
2019-03-02T00:03:37.923Z,5.60
2019-03-02T00:06:06.723Z,5.60
2019-03-02T00:08:37.170Z,5.70
2019-03-02T00:11:06.059Z,5.60
2019-03-02T00:13:36.195Z,5.70
2019-03-02T00:16:07.576Z,5.70
2019-03-02T00:18:35.662Z,5.70
2019-03-02T00:21:04.447Z,5.60
2019-03-02T00:23:33.514Z,5.60
2019-03-02T00:26:02.435Z,5.70
2019-03-02T00:28:32.750Z,5.70
2019-03-02T00:31:01.833Z,5.70
2019-03-02T00:33:30.648Z,5.60
2019-03-02T00:35:59.601Z,5.70
2019-03-02T00:38:28.300Z,5.70
2019-03-02T00:40:57.037Z,5.70
2019-03-02T00:43:27.094Z,5.70
2019-03-02T00:45:57.384Z,5.70
2019-03-02T00:48:26.291Z,5.70
2019-03-02T00:50:55.211Z,5.80
2019-03-02T00:53:23.991Z,5.80
2019-03-02T00:55:52.742Z,5.80
2019-03-02T00:58:21.604Z,5.80
2019-03-02T01:00:53.711Z,5.90
2019-03-02T01:03:20.854Z,5.90
2019-03-02T01:05:49.555Z,5.80
2019-03-02T01:08:18.358Z,5.80
2019-03-02T01:10:47.171Z,5.80
2019-03-02T01:13:16.884Z,5.80
2019-03-02T01:15:46.340Z,5.80
2019-03-02T01:18:15.093Z,5.80
2019-03-02T01:20:43.839Z,5.80
2019-03-02T01:23:12.552Z,5.80
2019-03-02T01:25:41.291Z,5.80
2019-03-02T01:28:10.692Z,5.90
2019-03-02T01:30:39.408Z,6.00
2019-03-02T01:33:08.224Z,6.00
2019-03-02T01:35:37.123Z,6.00
2019-03-02T01:38:05.918Z,6.00
2019-03-02T01:40:37.900Z,6.00
2019-03-02T01:43:05.804Z,5.90
2019-03-02T01:45:34.728Z,5.90
2019-03-02T01:48:03.512Z,5.90
2019-03-02T01:50:32.181Z,5.80
2019-03-02T01:53:00.903Z,5.80
2019-03-02T01:55:31.248Z,5.80
2019-03-02T01:58:00.071Z,5.90
2019-03-02T02:00:29.954Z,5.80
2019-03-02T02:02:58.648Z,5.70
2019-03-02T02:05:28.583Z,5.80
2019-03-02T02:07:58.095Z,5.80
2019-03-02T02:10:26.977Z,5.80
2019-03-02T02:12:55.699Z,5.80
2019-03-02T02:15:25.869Z,5.80
2019-03-02T02:17:54.934Z,5.80
2019-03-02T02:20:23.741Z,5.80
2019-03-02T02:22:52.531Z,5.70
2019-03-02T02:25:21.314Z,5.70
2019-03-02T02:27:50.053Z,5.80
2019-03-02T02:30:24.448Z,5.80
2019-03-02T02:33:03.095Z,5.80
2019-03-02T02:35:24.247Z,5.70
2019-03-02T02:37:53.058Z,5.70
2019-03-02T02:40:21.958Z,5.70
2019-03-02T02:42:50.681Z,5.70
2019-03-02T02:45:19.503Z,5.80
2019-03-02T02:47:51.667Z,5.70
2019-03-02T02:50:28.473Z,5.70
2019-03-02T02:52:49.189Z,5.70
2019-03-02T02:55:17.975Z,5.70
2019-03-02T02:57:46.724Z,5.80
2019-03-02T03:00:17.897Z,5.80
2019-03-02T03:02:46.665Z,5.70
2019-03-02T03:05:17.324Z,5.60
2019-03-02T03:07:52.286Z,5.70
2019-03-02T03:10:37.048Z,5.70
2019-03-02T03:13:05.852Z,5.70
2019-03-02T03:15:52.609Z,5.80
2019-03-02T03:18:21.298Z,5.70
2019-03-02T03:20:50.689Z,5.70
2019-03-02T03:23:24.478Z,5.70
2019-03-02T03:25:56.133Z,5.70
2019-03-02T03:28:20.575Z,5.60
2019-03-02T03:30:49.330Z,5.60
2019-03-02T03:33:18.128Z,5.60
2019-03-02T03:35:46.862Z,5.60
2019-03-02T03:38:15.611Z,5.50
2019-03-02T03:40:44.338Z,5.60
2019-03-02T03:43:13.105Z,5.60
2019-03-02T03:45:43.232Z,5.60
2019-03-02T03:48:13.135Z,5.60
2019-03-02T03:50:42.721Z,5.50
2019-03-02T03:53:11.542Z,5.60
2019-03-02T03:55:40.250Z,5.50
2019-03-02T03:58:09.117Z,5.60
2019-03-02T04:00:38.601Z,5.70
2019-03-02T04:03:08.867Z,5.70
2019-03-02T04:05:42.238Z,5.70
2019-03-02T04:08:09.491Z,5.70
2019-03-02T04:10:38.336Z,5.70
2019-03-02T04:13:07.019Z,5.70
2019-03-02T04:15:40.707Z,5.70
2019-03-02T04:18:43.230Z,5.70
2019-03-02T04:21:11.933Z,5.70
2019-03-02T04:23:40.687Z,5.70
2019-03-02T04:26:09.519Z,5.70
2019-03-02T04:28:38.368Z,5.70
2019-03-02T04:31:09.278Z,5.60
2019-03-02T04:33:39.054Z,5.60
2019-03-02T04:36:10.277Z,5.50
2019-03-02T04:38:38.710Z,5.50
2019-03-02T04:41:07.413Z,5.50
2019-03-02T04:43:36.217Z,5.50
2019-03-02T04:46:04.998Z,5.50
2019-03-02T04:48:35.806Z,5.50
2019-03-02T04:51:04.187Z,5.50
2019-03-02T04:53:32.917Z,5.50
2019-03-02T04:56:01.727Z,5.50
2019-03-02T04:58:30.448Z,5.60
2019-03-02T05:00:59.185Z,5.70
2019-03-02T05:03:27.950Z,5.60
2019-03-02T05:05:56.702Z,5.60
2019-03-02T05:08:25.522Z,5.60
2019-03-02T05:10:54.215Z,5.70
2019-03-02T05:13:24.712Z,5.80
2019-03-02T05:15:53.480Z,5.80
2019-03-02T05:18:22.282Z,5.80
2019-03-02T05:20:51.009Z,5.90
2019-03-02T05:23:19.733Z,5.80
2019-03-02T05:25:51.583Z,5.80
2019-03-02T05:28:18.975Z,5.90
2019-03-02T05:30:47.787Z,5.80
2019-03-02T05:33:16.796Z,5.80
2019-03-02T05:35:47.775Z,5.70
2019-03-02T05:38:16.163Z,5.70
2019-03-02T05:40:44.884Z,5.70
2019-03-02T05:43:13.673Z,5.70
2019-03-02T05:45:42.412Z,5.70
2019-03-02T05:48:11.147Z,5.70
2019-03-02T05:50:39.879Z,5.70
2019-03-02T05:53:08.605Z,5.70
2019-03-02T05:55:37.433Z,5.70
2019-03-02T05:58:06.164Z,5.70
2019-03-02T06:00:37.653Z,5.70
2019-03-02T06:03:05.537Z,5.70
2019-03-02T06:05:34.226Z,5.70
2019-03-02T06:08:02.986Z,5.80
2019-03-02T06:10:31.743Z,5.80
2019-03-02T06:13:00.554Z,5.80
2019-03-02T06:15:29.358Z,5.80
2019-03-02T06:17:58.063Z,5.80
2019-03-02T06:20:26.854Z,5.80
2019-03-02T06:22:56.677Z,5.70
2019-03-02T06:25:25.529Z,5.80
2019-03-02T06:27:54.332Z,5.80
2019-03-02T06:30:23.100Z,5.80
2019-03-02T06:32:51.867Z,5.70
2019-03-02T06:35:20.677Z,5.70
2019-03-02T06:37:53.009Z,5.70
2019-03-02T06:40:23.544Z,5.70
2019-03-02T06:42:50.803Z,5.80
2019-03-02T06:45:19.557Z,5.70
2019-03-02T06:47:48.348Z,5.80
2019-03-02T06:50:17.131Z,5.80
2019-03-02T06:52:46.039Z,5.80
2019-03-02T06:55:14.885Z,5.80
2019-03-02T06:57:46.345Z,5.80
2019-03-02T07:00:16.248Z,5.80
2019-03-02T07:02:45.042Z,5.80
2019-03-02T07:05:13.838Z,5.90
2019-03-02T07:07:42.656Z,6.00
2019-03-02T07:10:13.299Z,6.00
2019-03-02T07:12:45.615Z,6.10
2019-03-02T07:15:13.357Z,6.20
2019-03-02T07:17:55.001Z,6.20
2019-03-02T07:20:27.473Z,6.20
2019-03-02T07:22:55.708Z,6.20
2019-03-02T07:25:24.453Z,6.30
2019-03-02T07:27:53.170Z,6.30
2019-03-02T07:30:22.075Z,6.30
2019-03-02T07:32:50.826Z,6.30
2019-03-02T07:35:20.508Z,6.30
2019-03-02T07:37:49.477Z,6.30
2019-03-02T07:40:18.274Z,6.40
2019-03-02T07:42:47.069Z,6.40
2019-03-02T07:45:16.877Z,6.50
2019-03-02T07:47:45.599Z,6.50
2019-03-02T07:50:14.901Z,6.50
2019-03-02T07:52:45.005Z,6.50
2019-03-02T07:55:14.813Z,6.60
2019-03-02T07:57:44.751Z,6.70
2019-03-02T08:00:16.479Z,6.70
2019-03-02T08:02:45.180Z,6.70
2019-03-02T08:05:14.673Z,6.70
2019-03-02T08:07:44.182Z,6.80
2019-03-02T08:10:13.047Z,6.90
2019-03-02T08:12:41.891Z,6.90
2019-03-02T08:15:13.350Z,6.80
2019-03-02T08:17:45.644Z,6.90
2019-03-02T08:20:16.432Z,6.90
2019-03-02T08:22:46.257Z,7.00
2019-03-02T08:25:15.414Z,7.00
2019-03-02T08:27:44.225Z,7.10
2019-03-02T08:30:15.239Z,7.10
2019-03-02T08:32:46.984Z,7.20
2019-03-02T08:35:15.758Z,7.30
2019-03-02T08:37:44.527Z,7.30
2019-03-02T08:40:13.698Z,7.30
2019-03-02T08:42:42.648Z,7.30
2019-03-02T08:45:13.605Z,7.30
2019-03-02T08:47:42.406Z,7.30
2019-03-02T08:50:13.859Z,7.30
2019-03-02T08:52:42.557Z,7.10
2019-03-02T08:55:12.905Z,7.10
2019-03-02T08:57:41.745Z,7.10
2019-03-02T09:00:13.655Z,7.10
2019-03-02T09:02:42.410Z,7.10
2019-03-02T09:05:11.222Z,7.10
2019-03-02T09:07:40.277Z,7.10
2019-03-02T09:10:10.033Z,7.10
2019-03-02T09:12:38.775Z,7.10
2019-03-02T09:15:10.515Z,7.20
2019-03-02T09:17:39.273Z,7.30
2019-03-02T09:20:08.063Z,7.30
2019-03-02T09:22:36.867Z,7.30
2019-03-02T09:25:06.707Z,7.30
2019-03-02T09:27:35.542Z,7.30
2019-03-02T09:30:05.314Z,7.30
2019-03-02T09:32:34.032Z,7.30
2019-03-02T09:35:02.763Z,7.30
2019-03-02T09:37:31.571Z,7.30
2019-03-02T09:40:00.264Z,7.40
2019-03-02T09:42:29.087Z,7.40
2019-03-02T09:44:57.854Z,7.40
2019-03-02T09:47:26.666Z,7.40
2019-03-02T09:49:55.525Z,7.50
2019-03-02T09:52:24.224Z,7.40
2019-03-02T09:54:53.018Z,7.40
2019-03-02T09:57:21.768Z,7.40
2019-03-02T09:59:50.559Z,7.50
2019-03-02T10:02:19.341Z,7.60
2019-03-02T10:04:48.063Z,7.50
2019-03-02T10:07:16.807Z,7.50
2019-03-02T10:09:45.589Z,7.60
2019-03-02T10:12:15.153Z,7.60
2019-03-02T10:14:44.015Z,7.60
2019-03-02T10:17:12.829Z,7.70
2019-03-02T10:19:41.681Z,7.70
2019-03-02T10:22:10.651Z,7.80
2019-03-02T10:24:39.746Z,7.80
2019-03-02T10:27:08.849Z,7.90
2019-03-02T10:29:37.635Z,7.90
2019-03-02T10:32:06.404Z,7.80
2019-03-02T10:34:38.468Z,7.90
2019-03-02T10:37:07.207Z,8.00
2019-03-02T10:39:37.341Z,7.90
2019-03-02T10:42:06.233Z,8.00
2019-03-02T10:44:34.942Z,8.00
2019-03-02T10:47:03.944Z,8.00
2019-03-02T10:49:32.767Z,8.00
2019-03-02T10:52:01.826Z,8.10
2019-03-02T10:54:31.627Z,8.10
2019-03-02T10:57:01.118Z,8.10
2019-03-02T10:59:29.869Z,8.10
2019-03-02T11:01:58.633Z,8.10
2019-03-02T11:04:50.152Z,8.20
2019-03-02T11:07:40.761Z,8.20
2019-03-02T11:10:33.271Z,8.20
2019-03-02T11:13:12.259Z,8.30
2019-03-02T11:15:46.972Z,8.50
2019-03-02T11:18:35.449Z,8.60
2019-03-02T11:21:22.470Z,8.80
2019-03-02T11:24:12.743Z,8.80
2019-03-02T11:26:57.377Z,8.90
2019-03-02T11:29:54.077Z,9.00
2019-03-02T11:32:33.128Z,9.00
2019-03-02T11:35:10.424Z,9.00
2019-03-02T11:37:57.961Z,9.00
2019-03-02T11:40:38.210Z,9.00
2019-03-02T11:43:26.057Z,9.10
2019-03-02T11:46:15.318Z,9.10
2019-03-02T11:49:15.162Z,9.10
2019-03-02T11:52:03.095Z,9.10
2019-03-02T11:54:54.022Z,9.20
2019-03-02T11:57:41.902Z,9.00
2019-03-02T12:00:37.623Z,9.00
2019-03-02T12:03:23.474Z,9.00
2019-03-02T12:06:12.493Z,9.00
2019-03-02T12:08:47.487Z,8.90
2019-03-02T12:11:22.501Z,9.00
2019-03-02T12:14:09.992Z,9.00
2019-03-02T12:16:47.818Z,9.00
2019-03-02T12:19:26.197Z,9.00
2019-03-02T12:22:15.398Z,9.00
2019-03-02T12:24:54.756Z,9.10
2019-03-02T12:27:37.041Z,9.10
2019-03-02T12:30:16.273Z,9.20
2019-03-02T12:33:00.159Z,9.30
2019-03-02T12:35:49.651Z,9.40
2019-03-02T12:38:27.800Z,9.60
2019-03-02T12:41:18.397Z,9.70
2019-03-02T12:44:00.101Z,10.00
2019-03-02T12:46:48.054Z,10.20
2019-03-02T12:49:48.316Z,10.30
2019-03-02T12:52:31.931Z,10.40
2019-03-02T12:55:16.391Z,10.40
2019-03-02T12:57:56.947Z,10.50
2019-03-02T13:00:44.830Z,10.50
2019-03-02T13:03:37.853Z,10.40
2019-03-02T13:06:37.808Z,10.50
2019-03-02T13:09:25.423Z,10.50
2019-03-02T13:12:01.929Z,10.50
2019-03-02T13:14:48.813Z,10.60
2019-03-02T13:17:38.431Z,10.60
2019-03-02T13:20:45.161Z,10.70
2019-03-02T13:23:43.730Z,10.80
2019-03-02T13:26:40.198Z,10.90
2019-03-02T13:29:16.415Z,11.10
2019-03-02T13:32:02.810Z,11.20
2019-03-02T13:34:48.285Z,11.20
2019-03-02T13:37:41.676Z,11.10
2019-03-02T13:40:41.622Z,11.10
2019-03-02T13:43:30.053Z,11.10
2019-03-02T13:46:12.446Z,11.10
2019-03-02T13:48:50.398Z,11.20
2019-03-02T13:51:37.617Z,11.30
2019-03-02T13:54:25.552Z,11.20
2019-03-02T13:57:08.548Z,11.30
2019-03-02T14:00:03.422Z,11.40
2019-03-02T14:02:52.641Z,11.40
2019-03-02T14:05:38.276Z,11.50
2019-03-02T14:08:25.376Z,11.40
2019-03-02T14:11:02.865Z,11.40
2019-03-02T14:13:53.633Z,11.40
2019-03-02T14:16:40.049Z,11.40
2019-03-02T14:19:33.309Z,11.30
2019-03-02T14:22:14.842Z,11.40
2019-03-02T14:25:00.629Z,11.50
2019-03-02T14:27:57.675Z,11.50
2019-03-02T14:30:49.996Z,11.50
2019-03-02T14:33:43.951Z,11.50
2019-03-02T14:36:34.722Z,11.60
2019-03-02T14:39:22.460Z,11.40
2019-03-02T14:42:25.542Z,11.50
2019-03-02T14:45:09.705Z,11.50
2019-03-02T14:48:04.122Z,11.60
2019-03-02T14:51:10.008Z,11.80
2019-03-02T14:54:12.691Z,12.00
2019-03-02T14:56:53.187Z,11.90
2019-03-02T14:59:43.261Z,11.80
2019-03-02T15:02:28.324Z,11.80
2019-03-02T15:05:20.206Z,11.90
2019-03-02T15:08:00.241Z,11.90
2019-03-02T15:10:54.144Z,11.80
2019-03-02T15:13:41.950Z,11.70
2019-03-02T15:16:20.235Z,11.70
2019-03-02T15:19:11.287Z,11.50
2019-03-02T15:21:57.979Z,11.50
2019-03-02T15:24:41.702Z,11.40
2019-03-02T15:27:20.236Z,11.40
2019-03-02T15:29:58.512Z,11.40
2019-03-02T15:33:01.320Z,11.40
2019-03-02T15:35:45.889Z,11.50
2019-03-02T15:38:29.135Z,11.40
2019-03-02T15:41:22.896Z,11.40
2019-03-02T15:44:11.514Z,11.40
2019-03-02T15:47:10.079Z,11.40
2019-03-02T15:49:55.983Z,11.40
2019-03-02T15:52:52.587Z,11.30
2019-03-02T15:55:31.670Z,11.40
2019-03-02T15:58:19.729Z,11.30
2019-03-02T16:01:03.435Z,11.30
2019-03-02T16:03:57.279Z,11.30
2019-03-02T16:06:43.592Z,11.20
2019-03-02T16:09:49.638Z,11.20
2019-03-02T16:12:32.042Z,11.20
2019-03-02T16:15:22.691Z,11.20
2019-03-02T16:18:07.838Z,11.20
2019-03-02T16:20:47.424Z,11.10
2019-03-02T16:23:30.005Z,11.10
2019-03-02T16:26:26.737Z,11.10
2019-03-02T16:29:19.023Z,11.10
2019-03-02T16:32:01.279Z,11.10
2019-03-02T16:34:48.910Z,11.10
2019-03-02T16:37:35.045Z,11.00
2019-03-02T16:40:24.597Z,11.10
2019-03-02T16:43:04.511Z,11.00
2019-03-02T16:45:43.108Z,11.00
2019-03-02T16:48:30.913Z,11.00
2019-03-02T16:51:17.564Z,11.00
2019-03-02T16:53:57.262Z,11.00
2019-03-02T16:56:37.134Z,10.90
2019-03-02T16:59:14.712Z,10.90
2019-03-02T17:02:05.591Z,10.80
2019-03-02T17:04:56.665Z,10.70
2019-03-02T17:07:42.992Z,10.60
2019-03-02T17:10:40.126Z,10.50
2019-03-02T17:13:31.953Z,10.50
2019-03-02T17:16:09.123Z,10.40
2019-03-02T17:18:55.659Z,10.20
2019-03-02T17:21:38.835Z,10.20
2019-03-02T17:24:26.142Z,10.00
2019-03-02T17:27:12.683Z,10.00
2019-03-02T17:29:57.474Z,9.80
2019-03-02T17:32:45.337Z,9.70
2019-03-02T17:35:25.466Z,9.60
2019-03-02T17:38:15.142Z,9.50
2019-03-02T17:41:07.255Z,9.50
2019-03-02T17:44:04.383Z,9.40
2019-03-02T17:46:53.483Z,9.40
2019-03-02T17:49:36.996Z,9.40
2019-03-02T17:52:25.020Z,9.40
2019-03-02T17:55:15.600Z,9.40
2019-03-02T17:57:54.427Z,9.30
2019-03-02T18:00:53.269Z,9.30
2019-03-02T18:03:36.111Z,9.30
2019-03-02T18:06:23.748Z,9.30
2019-03-02T18:08:59.627Z,9.30
2019-03-02T18:11:50.401Z,9.30
2019-03-02T18:14:30.889Z,9.30
2019-03-02T18:17:19.034Z,9.30
2019-03-02T18:19:48.174Z,9.20
2019-03-02T18:22:17.050Z,9.30
2019-03-02T18:24:46.981Z,9.30
2019-03-02T18:27:15.896Z,9.30
2019-03-02T18:29:44.772Z,9.30
2019-03-02T18:32:13.682Z,9.30
2019-03-02T18:34:42.737Z,9.30
2019-03-02T18:37:11.522Z,9.30
2019-03-02T18:39:40.293Z,9.30
2019-03-02T18:42:08.967Z,9.30
2019-03-02T18:44:37.794Z,9.30
2019-03-02T18:47:06.721Z,9.30
2019-03-02T18:50:02.972Z,9.30
2019-03-02T18:52:49.690Z,9.30
2019-03-02T18:55:18.552Z,9.30
2019-03-02T18:57:50.591Z,9.30
2019-03-02T19:00:22.894Z,9.30
2019-03-02T19:02:50.933Z,9.30
2019-03-02T19:05:28.520Z,9.30
2019-03-02T19:07:58.771Z,9.30
2019-03-02T19:10:27.606Z,9.30
2019-03-02T19:12:56.410Z,9.40
2019-03-02T19:15:25.403Z,9.30
2019-03-02T19:17:54.400Z,9.30
2019-03-02T19:20:23.303Z,9.30
2019-03-02T19:22:52.145Z,9.30
2019-03-02T19:25:21.041Z,9.30
2019-03-02T19:27:50.005Z,9.30
2019-03-02T19:30:19.621Z,9.30
2019-03-02T19:32:48.388Z,9.40
2019-03-02T19:35:17.145Z,9.40
2019-03-02T19:37:45.833Z,9.40
2019-03-02T19:40:16.782Z,9.40
2019-03-02T19:42:45.535Z,9.40
2019-03-02T19:45:14.365Z,9.40
2019-03-02T19:47:43.362Z,9.50
2019-03-02T19:50:14.301Z,9.50
2019-03-02T19:52:43.094Z,9.50
2019-03-02T19:55:14.897Z,9.50
2019-03-02T19:57:43.662Z,9.50
2019-03-02T20:00:18.129Z,9.50
2019-03-02T20:02:47.095Z,9.50
2019-03-02T20:05:15.840Z,9.50
2019-03-02T20:07:44.627Z,9.60
2019-03-02T20:10:13.756Z,9.60
2019-03-02T20:12:42.463Z,9.60
2019-03-02T20:15:13.183Z,9.70
2019-03-02T20:17:41.925Z,9.70
2019-03-02T20:20:12.334Z,9.70
2019-03-02T20:22:41.126Z,9.80
2019-03-02T20:25:11.424Z,9.80
2019-03-02T20:27:40.163Z,9.80
2019-03-02T20:30:14.443Z,9.90
2019-03-02T20:32:43.186Z,9.80
2019-03-02T20:35:14.081Z,9.90
2019-03-02T20:37:42.854Z,9.90
2019-03-02T20:40:13.633Z,9.90
2019-03-02T20:42:42.407Z,9.90
2019-03-02T20:45:12.866Z,9.90
2019-03-02T20:47:41.623Z,9.90
2019-03-02T20:50:12.730Z,9.80
2019-03-02T20:52:41.617Z,9.80
2019-03-02T20:55:10.655Z,9.80
2019-03-02T20:57:39.340Z,9.80
2019-03-02T21:00:28.222Z,9.80
2019-03-02T21:02:57.067Z,9.90
2019-03-02T21:05:25.834Z,9.90
2019-03-02T21:07:54.690Z,9.90
2019-03-02T21:10:23.699Z,9.90
2019-03-02T21:12:52.879Z,9.90
2019-03-02T21:15:26.976Z,9.90
2019-03-02T21:17:55.707Z,9.90
2019-03-02T21:20:24.618Z,9.90
2019-03-02T21:22:53.323Z,9.90
2019-03-02T21:25:22.068Z,9.90
2019-03-02T21:27:50.837Z,9.90
2019-03-02T21:30:19.692Z,9.90
2019-03-02T21:32:48.498Z,9.90
2019-03-02T21:35:17.359Z,9.90
2019-03-02T21:37:46.163Z,9.90
2019-03-02T21:40:17.383Z,9.90
2019-03-02T21:42:46.182Z,9.90
2019-03-02T21:45:16.016Z,9.90
2019-03-02T21:47:45.266Z,10.00
2019-03-02T21:50:16.267Z,10.00
2019-03-02T21:52:45.018Z,10.00
2019-03-02T21:55:13.953Z,10.00
2019-03-02T21:57:42.773Z,9.90
2019-03-02T22:00:16.710Z,10.00
2019-03-02T22:02:45.535Z,9.90
2019-03-02T22:05:14.376Z,10.00
2019-03-02T22:07:43.252Z,10.00
2019-03-02T22:10:14.977Z,10.00
2019-03-02T22:12:43.783Z,10.00
2019-03-02T22:15:13.214Z,9.90
2019-03-02T22:17:42.867Z,9.90
2019-03-02T22:20:12.047Z,9.90
2019-03-02T22:22:40.897Z,9.90
2019-03-02T22:25:11.174Z,9.90
2019-03-02T22:27:39.910Z,9.90
2019-03-02T22:30:29.649Z,9.90
2019-03-02T22:32:58.484Z,9.90
2019-03-02T22:35:27.199Z,9.80
2019-03-02T22:37:55.961Z,9.80
2019-03-02T22:40:24.900Z,9.70
2019-03-02T22:42:53.791Z,9.70
2019-03-02T22:45:22.584Z,9.70
2019-03-02T22:47:51.412Z,9.70
2019-03-02T22:50:21.443Z,9.70
2019-03-02T22:52:50.204Z,9.80
2019-03-02T22:55:19.171Z,9.80
2019-03-02T22:57:48.657Z,9.80
2019-03-02T23:01:05.493Z,9.80
2019-03-02T23:03:33.081Z,9.80
2019-03-02T23:06:01.817Z,9.80
2019-03-02T23:08:30.513Z,9.80
2019-03-02T23:10:59.279Z,9.80
2019-03-02T23:13:28.020Z,9.80
2019-03-02T23:15:56.836Z,9.90
2019-03-02T23:18:25.512Z,9.90
2019-03-02T23:20:54.234Z,9.90
2019-03-02T23:23:23.018Z,9.80
2019-03-02T23:25:51.834Z,9.90
2019-03-02T23:28:20.566Z,9.90
2019-03-02T23:30:49.396Z,9.90
2019-03-02T23:33:18.813Z,9.90
2019-03-02T23:35:47.495Z,9.90
2019-03-02T23:38:16.292Z,9.90
2019-03-02T23:40:45.025Z,9.90
2019-03-02T23:43:16.632Z,10.00
2019-03-02T23:45:45.478Z,9.90
2019-03-02T23:48:14.322Z,9.90
2019-03-02T23:50:43.071Z,9.90
2019-03-02T23:53:11.839Z,9.90
2019-03-02T23:55:40.740Z,9.90
2019-03-02T23:58:09.443Z,10.00
